Nearby METAR Reports

 

KCRG - Jacksonvil/Craig, Florida, USA
Distance from station: S 4mi, 6km
Updated: Sun, 09-May-2021 7:53am EDT
Clear
Clear
 Wind from calm
Wind: Calm
Temperature: 64°F , 18°C
Dew Point: 61°F , 16°C
Humidity: 88%
Barometer: 30.13 inHg , 1020.3 hPa
Clouds: Clear
Visibility: 10 miles , 16 km
2021/05/09 11:53 KCRG 091153Z 00000KT 10SM CLR 18/16 A3013 RMK AO2 SLP203 T01780156 10178 20128 53011
KNRB - Mayport Nas, Florida, USA
Distance from station: E 6mi, 10km
Updated: Sun, 09-May-2021 7:52am EDT
Clear
Clear
 Wind from SSW
Wind: SSW 3 mph , 6 km/h
Temperature: 66°F , 19°C
Dew Point: 59°F , 15°C
Humidity: 78%
Barometer: 30.13 inHg , 1020.3 hPa
Clouds: Clear
Visibility: 10 miles , 16 km
2021/05/09 11:52 KNRB 091152Z AUTO 21003KT 10SM CLR 19/15 A3013 RMK AO2 SLP202 T01940150 10194 20150 53010
 
KJAX - Jacksonville, Florida, USA
Distance from station: NW 13mi, 20km
Updated: Sun, 09-May-2021 7:56am EDT
Clear
Clear
 Wind from calm
Wind: Calm
Temperature: 61°F , 16°C
Dew Point: 55°F , 13°C
Humidity: 83%
Barometer: 30.13 inHg , 1020.3 hPa
Clouds: Clear
Visibility: 10 miles , 16 km
2021/05/09 11:56 KJAX 091156Z 00000KT 10SM CLR 16/13 A3013 RMK AO2 SLP202 T01560133 10156 20117 53010 $
KNIP - Jacksonville Nas, Florida, USA
Distance from station: SW 15mi, 24km
Updated: Sun, 09-May-2021 7:53am EDT
Clear
Clear
 Wind from S
Wind: S 8 mph , 13 km/h
Temperature: 70°F , 21°C
Dew Point: 55°F , 13°C
Humidity: 60%
Barometer: 30.14 inHg , 1020.7 hPa
Clouds: Clear
Visibility: 10 miles , 16 km
2021/05/09 11:53 KNIP 091153Z 17007KT 10SM CLR 21/13 A3014 RMK AO2 SLP200 T02060133 10206 20178 53011
 
KFHB - Fernandina Beach, Florida, USA
Distance from station: N 16mi, 26km
Updated: Sun, 09-May-2021 8:15am EDT
Clear
Clear
 Wind from SSW
Wind: SSW 3 mph , 6 km/h
Temperature: 68°F , 20°C
Dew Point: 64°F , 18°C
Humidity: 88%
Barometer: 30.14 inHg , 1020.7 hPa
Clouds: Clear
Visibility: 10 miles , 16 km
2021/05/09 12:15 KFHB 091215Z AUTO 21003KT 10SM CLR 20/18 A3014 RMK AO2 T02040180
KVQQ - Jacksonvil/Cecil, Florida, USA
Distance from station: WSW 25mi, 40km
Updated: Sun, 09-May-2021 7:50am EDT
Clear
Clear
 Wind from calm
Wind: Calm
Temperature: 57°F , 14°C
Dew Point: 54°F , 12°C
Humidity: 88%
Barometer: 30.13 inHg , 1020.3 hPa
Clouds: Clear
Visibility: 10 miles , 16 km
2021/05/09 11:50 KVQQ 091150Z 00000KT 10SM CLR 14/12 A3013
 
KSGJ - St Augustine, Florida, USA
Distance from station: SSE 31mi, 51km
Updated: Sun, 09-May-2021 7:56am EDT
Clear
Clear
 Wind from S
Wind: S 5 mph , 7 km/h
Temperature: 66°F , 19°C
Dew Point: 57°F , 14°C
Humidity: 73%
Barometer: 30.14 inHg , 1020.7 hPa
Clouds: Clear
Visibility: 10 miles , 16 km
2021/05/09 11:56 KSGJ 091156Z 19004KT 10SM CLR 19/14 A3014 RMK AO2 SLP206 T01940144 10194 20144 53011 $
K42J - Keystone Heights, Florida, USA
Distance from station: SW 49mi, 79km
Updated: Sun, 09-May-2021 8:15am EDT
Clear
Clear
 Wind from SSE
Wind: SSE 6 mph , 9 km/h
Temperature: 66°F , 19°C
Dew Point: 59°F , 15°C
Humidity: 78%
Barometer: 30.13 inHg , 1020.3 hPa
Clouds: Clear
Visibility: 9 miles , 14 km
2021/05/09 12:15 K42J 091215Z AUTO 15005KT 9SM CLR 19/15 A3013 RMK A01 TSNO